Brodhead, WI

17:23 CDT le 22 octobre 2014 (GMT -0500)
Monroe Municipal | Change Station
CLOSE
Current Station
Aéroport
Location: Monroe,
Altitude: 1086 ft
Stations météo à proximité

Alt. 1086 ft 42.62 °N, 89.59 °W | Updated 8 minutes ago

Ciel dégagé
Ciel dégagé
55 ° F
Paraît 55 ° F
N
10
Vent Variable Vent de SE

Aujourd'hui
Haut(e) -- | Bas -- ° F
--% Risque de précip.
Hier
Haut(e) -- | Bas -- ° F
Precip. -- pouce
7:18 AM 6:04 PM
Lune descendante, 1% visible
Pression 30.23 pouce
Visibilité 10.0 Miles terrestres
Nuages Ciel dégagé
Point de rosée 37 ° F
Humidité 51%
Précipitations 0.00 pouce
Profondeur de la couche neigeuse Non disponible.
UV 0 sur 12
Pollen 1.10 sur 12
Qualité de l'air Non disponible.
Flu Activity Sporadic
METAR KEFT 222215Z AUTO 14009KT 10SM CLR 13/03 A3023 RMK AO2

More Conditions Fewer Conditions

Pression 30.23 pouce
Visibilité 10.0 Miles terrestres
Nuages Ciel dégagé
Point de rosée 37 ° F
Humidité 51%
Précipitations 0.00 pouce
Profondeur de la couche neigeuse Non disponible.
UV 0 sur 12
Pollen 1.10 sur 12
Qualité de l'air Non disponible.
Flu Activity Sporadic
METAR KEFT 222215Z AUTO 14009KT 10SM CLR 13/03 A3023 RMK AO2

More Conditions Fewer Conditions

10-Day Weather Forecast

Almanac

Astronomie

Oct. 22, 2014 Lever Coucher
Temps réel 07:18 CDT 18:04 CDT
Crépuscule civil 06:50 CDT 18:32 CDT
Crépuscule nautique 06:17 CDT 19:05 CDT
Crépuscule astronomique 05:44 CDT 19:38 CDT
Lune 05:58 CDT 17:32 CDT
Durée de lumière visible 11h 42m
Longueur du jour
10h 45m
Tomorrow will be 2m 41s shorter.
Lune descendante, 1% of the Moon is Illuminated
Aujourd'hui
Lune descendante
Oct 23
Nouveau
Oct 30
Premier quartier
Nov 6
Pleine lune
Nov 14
Dernier quartier

Extrêmes aujourd'hui

State Highs State Lows

Community

WunderPhotos

Upload Photos

1,764,064 Photos téléchargées !

WunderBlogs® & News

Nearby

Épaisseur de neige

Station Depth Altitude
Pas de nouvelles chutes de neige

Activité sismique

Ville Distance Mag. Time & Date
No recent earthquake activity has been reported nearby.
Minimum magnitude displayed is 2.5.

Températures des eaux côtières

Lieu Température
Aucun rapport de station

Stations météo à proximité